createdAt,value
2023-10-04T00:00:04.849Z,8.49
2023-10-04T00:00:50.098Z,8.49
2023-10-04T00:01:35.776Z,8.49
2023-10-04T00:02:19.808Z,8.49
2023-10-04T00:03:04.834Z,8.49
2023-10-04T00:03:49.978Z,8.49
2023-10-04T00:04:35.090Z,8.49
2023-10-04T00:05:19.888Z,8.49
2023-10-04T00:06:05.525Z,8.49
2023-10-04T00:06:50.493Z,8.49
2023-10-04T00:07:35.597Z,8.49
2023-10-04T00:08:20.121Z,8.49
2023-10-04T00:09:05.522Z,8.49
2023-10-04T00:09:50.228Z,8.49
2023-10-04T00:10:35.331Z,8.49
2023-10-04T00:11:20.234Z,8.49
2023-10-04T00:12:05.135Z,8.49
2023-10-04T00:12:49.937Z,398.13
2023-10-04T00:13:35.526Z,398.13
2023-10-04T00:14:20.330Z,398.13
2023-10-04T00:15:05.756Z,398.13
2023-10-04T00:15:50.476Z,398.13
2023-10-04T00:16:36.482Z,398.13
2023-10-04T00:17:20.605Z,398.13
2023-10-04T00:18:05.836Z,398.13
2023-10-04T00:18:50.730Z,398.13
2023-10-04T00:19:36.022Z,398.13
2023-10-04T00:20:21.189Z,398.13
2023-10-04T00:21:06.313Z,398.13
2023-10-04T00:21:51.228Z,398.13
2023-10-04T00:22:35.922Z,398.13
2023-10-04T00:23:20.840Z,398.13
2023-10-04T00:24:05.976Z,398.13
2023-10-04T00:24:50.473Z,12.26
2023-10-04T00:25:35.652Z,10.37
2023-10-04T00:26:21.081Z,13.20
2023-10-04T00:27:05.760Z,12.26
2023-10-04T00:27:50.766Z,15.76
2023-10-04T00:28:36.163Z,558.21
2023-10-04T00:29:21.946Z,16.98
2023-10-04T00:30:06.484Z,16.98
2023-10-04T00:30:51.905Z,16.98
2023-10-04T00:31:36.757Z,11.32
2023-10-04T00:32:22.249Z,11.32
2023-10-04T00:33:06.464Z,16.98
2023-10-04T00:33:52.003Z,16.98
2023-10-04T00:34:37.500Z,16.98
2023-10-04T00:35:25.082Z,16.98
2023-10-04T00:36:07.023Z,16.98
2023-10-04T00:36:52.262Z,16.98
2023-10-04T00:37:37.260Z,16.98
2023-10-04T00:38:22.169Z,16.98
2023-10-04T00:39:07.335Z,16.98
2023-10-04T00:39:52.311Z,16.98
2023-10-04T00:40:37.339Z,16.98
2023-10-04T00:41:22.235Z,16.98
2023-10-04T00:42:07.929Z,16.98
2023-10-04T00:42:52.316Z,16.98
2023-10-04T00:43:38.388Z,16.98
2023-10-04T00:44:22.654Z,16.98
2023-10-04T00:45:07.919Z,16.98
2023-10-04T00:45:52.362Z,16.98
2023-10-04T00:46:37.721Z,16.98
2023-10-04T00:47:22.738Z,16.98
2023-10-04T00:48:08.162Z,16.98
2023-10-04T00:48:52.841Z,16.98
2023-10-04T00:49:38.388Z,16.98
2023-10-04T00:50:24.081Z,16.98
2023-10-04T00:51:08.275Z,16.98
2023-10-04T00:51:52.870Z,16.98
2023-10-04T00:52:38.032Z,16.98
2023-10-04T00:53:23.088Z,16.98
2023-10-04T00:54:08.176Z,16.98
2023-10-04T00:54:52.790Z,16.98
2023-10-04T00:55:38.570Z,16.98
2023-10-04T00:56:23.217Z,16.98
2023-10-04T00:57:09.025Z,16.98
2023-10-04T00:57:53.434Z,16.98
2023-10-04T00:58:38.183Z,16.98
2023-10-04T00:59:23.663Z,16.98
2023-10-04T01:00:08.654Z,16.98
2023-10-04T01:00:53.669Z,16.98
2023-10-04T01:01:38.782Z,16.98
2023-10-04T01:02:24.031Z,16.98
2023-10-04T01:03:09.120Z,16.98
2023-10-04T01:03:54.230Z,16.98
2023-10-04T01:04:39.040Z,16.98
2023-10-04T01:05:24.778Z,16.98
2023-10-04T01:06:09.493Z,16.98
2023-10-04T01:06:54.002Z,16.98
2023-10-04T01:07:39.059Z,16.98
2023-10-04T01:08:24.039Z,16.98
2023-10-04T01:09:08.812Z,16.98
2023-10-04T01:09:54.242Z,16.98
2023-10-04T01:10:39.122Z,28.29
2023-10-04T01:11:24.335Z,28.29
2023-10-04T01:12:09.102Z,17.82
2023-10-04T01:12:54.154Z,17.82
2023-10-04T01:13:39.161Z,17.82
2023-10-04T01:14:24.180Z,16.88
2023-10-04T01:15:09.392Z,18.29
2023-10-04T01:15:54.472Z,18.76
2023-10-04T01:16:39.433Z,17.82
2023-10-04T01:17:24.453Z,16.88
2023-10-04T01:18:09.540Z,18.76
2023-10-04T01:18:54.599Z,23.45
2023-10-04T01:19:39.483Z,21.57
2023-10-04T01:20:25.787Z,18.86
2023-10-04T01:21:09.777Z,17.92
2023-10-04T01:21:54.763Z,25.95
2023-10-04T01:22:39.703Z,16.98
2023-10-04T01:23:25.273Z,19.80
2023-10-04T01:24:10.339Z,18.54
2023-10-04T01:24:55.101Z,17.06
2023-10-04T01:25:40.218Z,18.01
2023-10-04T01:26:25.163Z,19.90
2023-10-04T01:27:10.167Z,13.27
2023-10-04T01:27:54.759Z,16.11
2023-10-04T01:28:40.236Z,22.75
2023-10-04T01:29:25.897Z,17.06
2023-10-04T01:30:10.542Z,21.80
2023-10-04T01:30:56.133Z,16.79
2023-10-04T01:31:40.828Z,18.96
2023-10-04T01:32:27.339Z,19.90
2023-10-04T01:33:10.778Z,20.85
2023-10-04T01:33:55.624Z,20.75
2023-10-04T01:34:40.805Z,17.92
2023-10-04T01:35:26.399Z,14.15
2023-10-04T01:36:11.067Z,16.98
2023-10-04T01:36:56.088Z,16.98
2023-10-04T01:37:40.585Z,14.15
2023-10-04T01:38:26.262Z,14.22
2023-10-04T01:39:11.655Z,16.26
2023-10-04T01:39:56.198Z,16.26
2023-10-04T01:40:41.620Z,14.35
2023-10-04T01:41:26.605Z,15.30
2023-10-04T01:42:11.003Z,16.32
2023-10-04T01:42:56.216Z,13.44
2023-10-04T01:43:41.686Z,12.53
2023-10-04T01:44:26.530Z,11.57
2023-10-04T01:45:11.443Z,13.49
2023-10-04T01:45:56.525Z,19.28
2023-10-04T01:46:41.501Z,12.53
2023-10-04T01:47:27.090Z,15.42
2023-10-04T01:48:11.815Z,12.57
2023-10-04T01:48:56.933Z,11.61
2023-10-04T01:49:41.714Z,13.54
2023-10-04T01:50:26.806Z,11.57
2023-10-04T01:51:12.105Z,11.57
2023-10-04T01:51:56.981Z,13.49
2023-10-04T01:52:41.661Z,11.57
2023-10-04T01:53:26.936Z,11.57
2023-10-04T01:54:12.072Z,9.64
2023-10-04T01:54:57.410Z,17.35
2023-10-04T01:55:42.085Z,11.37
2023-10-04T01:56:27.471Z,9.60
2023-10-04T01:57:12.678Z,11.52
2023-10-04T01:57:57.702Z,13.49
2023-10-04T01:58:42.614Z,13.49
2023-10-04T01:59:27.320Z,11.57
2023-10-04T02:00:12.626Z,12.53
2023-10-04T02:00:57.712Z,12.57
2023-10-04T02:01:42.526Z,12.53
2023-10-04T02:02:29.784Z,12.53
2023-10-04T02:03:13.163Z,11.48
2023-10-04T02:03:57.813Z,11.57
2023-10-04T02:04:42.640Z,9.64
2023-10-04T02:05:27.694Z,13.39
2023-10-04T02:06:13.352Z,13.58
2023-10-04T02:06:57.492Z,15.52
2023-10-04T02:07:42.552Z,15.61
2023-10-04T02:08:27.734Z,14.64
2023-10-04T02:09:13.347Z,11.71
2023-10-04T02:09:57.934Z,14.55
2023-10-04T02:10:43.187Z,19.28
2023-10-04T02:11:28.341Z,15.52
2023-10-04T02:12:12.993Z,21.34
2023-10-04T02:12:58.044Z,14.55
2023-10-04T02:13:43.004Z,14.55
2023-10-04T02:14:27.958Z,14.55
2023-10-04T02:15:15.974Z,231.24
2023-10-04T02:15:58.283Z,15.52
2023-10-04T02:16:43.397Z,15.52
2023-10-04T02:17:28.311Z,13.66
2023-10-04T02:18:13.586Z,15.61
2023-10-04T02:18:58.710Z,14.55
2023-10-04T02:19:43.659Z,11.64
2023-10-04T02:20:28.727Z,12.61
2023-10-04T02:21:13.801Z,16.49
2023-10-04T02:21:58.727Z,14.55
2023-10-04T02:22:44.187Z,12.61
2023-10-04T02:23:29.563Z,12.61
2023-10-04T02:24:14.169Z,14.55
2023-10-04T02:24:58.815Z,16.59
2023-10-04T02:25:44.328Z,15.61
2023-10-04T02:26:28.972Z,15.61
2023-10-04T02:27:14.417Z,12.61
2023-10-04T02:27:59.496Z,15.52
2023-10-04T02:28:44.381Z,13.72
2023-10-04T02:29:29.342Z,12.57
2023-10-04T02:30:14.551Z,12.57
2023-10-04T02:30:59.220Z,13.54
2023-10-04T02:31:44.635Z,17.28
2023-10-04T02:32:29.329Z,13.58
2023-10-04T02:33:14.605Z,11.61
2023-10-04T02:33:59.982Z,13.58
2023-10-04T02:34:44.688Z,22.31
2023-10-04T02:35:29.679Z,17.46
2023-10-04T02:36:14.988Z,14.09
2023-10-04T02:37:00.132Z,14.09
2023-10-04T02:37:45.216Z,14.09
2023-10-04T02:38:29.973Z,14.09
2023-10-04T02:39:14.946Z,14.55
2023-10-04T02:40:00.188Z,14.55
2023-10-04T02:40:44.831Z,12.61
2023-10-04T02:41:29.893Z,15.52
2023-10-04T02:42:15.000Z,16.49
2023-10-04T02:43:00.318Z,16.49
2023-10-04T02:43:45.165Z,14.55
2023-10-04T02:44:30.626Z,14.55
2023-10-04T02:45:15.454Z,11.64
2023-10-04T02:46:00.144Z,12.57
2023-10-04T02:46:45.575Z,11.61
2023-10-04T02:47:30.674Z,13.54
2023-10-04T02:48:16.010Z,15.36
2023-10-04T02:49:00.863Z,18.38
2023-10-04T02:49:45.815Z,13.54
2023-10-04T02:50:30.874Z,16.49
2023-10-04T02:51:16.093Z,14.55
2023-10-04T02:52:01.126Z,14.55
2023-10-04T02:52:45.958Z,15.52
2023-10-04T02:53:31.370Z,14.55
2023-10-04T02:54:16.061Z,14.51
2023-10-04T02:55:00.906Z,14.51
2023-10-04T02:55:45.962Z,15.47
2023-10-04T02:56:31.060Z,12.57
2023-10-04T02:57:17.476Z,11.61
2023-10-04T02:58:01.357Z,11.61
2023-10-04T02:58:46.275Z,13.54
2023-10-04T02:59:31.241Z,13.54
2023-10-04T03:00:17.613Z,15.47
2023-10-04T03:01:01.206Z,14.40
2023-10-04T03:01:46.008Z,20.37
2023-10-04T03:02:31.476Z,16.32
2023-10-04T03:03:16.980Z,16.44
2023-10-04T03:04:02.155Z,16.44
2023-10-04T03:04:46.354Z,19.34
2023-10-04T03:05:31.329Z,14.51
2023-10-04T03:06:16.566Z,16.44
2023-10-04T03:07:02.020Z,21.28
2023-10-04T03:07:46.793Z,14.51
2023-10-04T03:08:31.958Z,14.51
2023-10-04T03:09:16.818Z,12.57
2023-10-04T03:10:01.830Z,17.41
2023-10-04T03:10:46.477Z,14.51
2023-10-04T03:11:31.645Z,13.54
2023-10-04T03:12:17.350Z,13.54
2023-10-04T03:13:01.748Z,13.54
2023-10-04T03:13:47.219Z,12.53
2023-10-04T03:14:32.058Z,14.51
2023-10-04T03:15:17.308Z,15.47
2023-10-04T03:16:01.972Z,13.39
2023-10-04T03:16:46.932Z,15.47
2023-10-04T03:17:32.315Z,17.21
2023-10-04T03:18:17.711Z,17.21
2023-10-04T03:19:03.039Z,14.51
2023-10-04T03:19:47.363Z,14.51
2023-10-04T03:20:33.044Z,16.44
2023-10-04T03:21:17.914Z,13.54
2023-10-04T03:22:02.953Z,13.54
2023-10-04T03:22:48.003Z,13.54
2023-10-04T03:23:33.024Z,15.47
2023-10-04T03:24:19.076Z,15.47
2023-10-04T03:25:02.815Z,15.47
2023-10-04T03:25:48.022Z,15.47
2023-10-04T03:26:32.731Z,15.47
2023-10-04T03:27:18.395Z,15.47
2023-10-04T03:28:02.879Z,14.51
2023-10-04T03:28:48.048Z,13.49
2023-10-04T03:29:32.889Z,14.35
2023-10-04T03:30:18.180Z,16.38
2023-10-04T03:31:03.454Z,16.38
2023-10-04T03:31:48.571Z,16.38
2023-10-04T03:32:33.447Z,16.38
2023-10-04T03:33:19.582Z,16.38
2023-10-04T03:34:05.129Z,16.38
2023-10-04T03:34:48.953Z,16.38
2023-10-04T03:35:34.507Z,16.38
2023-10-04T03:36:19.277Z,16.38
2023-10-04T03:37:04.171Z,16.38
2023-10-04T03:37:49.834Z,16.38
2023-10-04T03:38:34.331Z,16.38
2023-10-04T03:39:19.666Z,16.38
2023-10-04T03:40:04.211Z,16.38
2023-10-04T03:40:49.601Z,16.38
2023-10-04T03:41:34.304Z,16.38
2023-10-04T03:42:19.295Z,16.38
2023-10-04T03:43:04.518Z,16.38
2023-10-04T03:43:49.580Z,16.38
2023-10-04T03:44:34.113Z,16.38
2023-10-04T03:45:19.581Z,16.38
2023-10-04T03:46:04.805Z,16.38
2023-10-04T03:46:49.388Z,16.38
2023-10-04T03:47:34.460Z,16.38
2023-10-04T03:48:19.674Z,16.38
2023-10-04T03:49:04.899Z,16.38
2023-10-04T03:49:50.514Z,16.38
2023-10-04T03:50:34.785Z,16.38
2023-10-04T03:51:19.958Z,16.38
2023-10-04T03:52:05.107Z,16.38
2023-10-04T03:52:50.067Z,16.38
2023-10-04T03:53:35.325Z,16.38
2023-10-04T03:54:19.999Z,16.38
2023-10-04T03:55:05.135Z,16.38
2023-10-04T03:55:49.806Z,17.41
2023-10-04T03:56:34.751Z,18.38
2023-10-04T03:57:20.027Z,17.41
2023-10-04T03:58:04.935Z,16.44
2023-10-04T03:58:50.803Z,16.26
2023-10-04T03:59:35.047Z,15.47
2023-10-04T04:00:20.308Z,15.47
2023-10-04T04:01:05.134Z,17.41
2023-10-04T04:01:50.615Z,17.41
2023-10-04T04:02:35.527Z,21.28
2023-10-04T04:03:20.772Z,18.38
2023-10-04T04:04:05.624Z,18.38
2023-10-04T04:04:50.774Z,18.38
2023-10-04T04:05:35.622Z,18.38
2023-10-04T04:06:20.799Z,19.34
2023-10-04T04:07:05.711Z,23.21
2023-10-04T04:07:50.659Z,24.01
2023-10-04T04:08:36.134Z,18.38
2023-10-04T04:09:20.999Z,21.28
2023-10-04T04:10:06.056Z,19.34
2023-10-04T04:10:51.206Z,20.31
2023-10-04T04:11:36.315Z,16.44
2023-10-04T04:12:21.016Z,20.31
2023-10-04T04:13:06.073Z,22.95
2023-10-04T04:13:51.116Z,24.18
2023-10-04T04:14:36.087Z,16.44
2023-10-04T04:15:22.599Z,20.31
2023-10-04T04:16:06.643Z,18.38
2023-10-04T04:16:51.882Z,16.44
2023-10-04T04:17:36.398Z,20.31
2023-10-04T04:18:21.570Z,20.31
2023-10-04T04:19:06.643Z,18.38
2023-10-04T04:19:51.664Z,18.38
2023-10-04T04:20:37.260Z,17.41
2023-10-04T04:21:21.745Z,21.28
2023-10-04T04:22:07.095Z,18.38
2023-10-04T04:22:52.114Z,24.18
2023-10-04T04:23:37.059Z,24.18
2023-10-04T04:24:22.122Z,18.38
2023-10-04T04:25:06.970Z,19.34
2023-10-04T04:25:52.366Z,18.31
2023-10-04T04:26:37.409Z,20.31
2023-10-04T04:27:22.170Z,21.28
2023-10-04T04:28:07.298Z,19.34
2023-10-04T04:28:52.369Z,20.31
2023-10-04T04:29:37.300Z,24.18
2023-10-04T04:30:22.332Z,21.28
2023-10-04T04:31:07.391Z,21.28
2023-10-04T04:31:52.264Z,27.08
2023-10-04T04:32:37.878Z,21.28
2023-10-04T04:33:22.641Z,17.35
2023-10-04T04:34:07.964Z,18.31
2023-10-04T04:34:52.914Z,23.21
2023-10-04T04:35:37.786Z,24.18
2023-10-04T04:36:22.704Z,22.00
2023-10-04T04:37:07.665Z,21.28
2023-10-04T04:37:53.037Z,21.28
2023-10-04T04:38:38.053Z,19.34
2023-10-04T04:39:23.285Z,24.18
2023-10-04T04:40:07.994Z,16.38
2023-10-04T04:40:52.944Z,25.06
2023-10-04T04:41:37.897Z,20.08
2023-10-04T04:42:23.293Z,22.17
2023-10-04T04:43:08.111Z,22.17
2023-10-04T04:43:53.278Z,27.08
2023-10-04T04:44:38.226Z,29.98
2023-10-04T04:45:23.828Z,22.17
2023-10-04T04:46:08.297Z,25.06
2023-10-04T04:46:53.415Z,23.13
2023-10-04T04:47:38.300Z,22.24
2023-10-04T04:48:23.616Z,18.31
2023-10-04T04:49:08.411Z,18.31
2023-10-04T04:49:53.733Z,18.31
2023-10-04T04:50:39.334Z,18.31
2023-10-04T04:51:24.340Z,18.31
2023-10-04T04:52:09.434Z,18.31
2023-10-04T04:52:54.469Z,18.31
2023-10-04T04:53:39.314Z,18.31
2023-10-04T04:54:24.309Z,18.31
2023-10-04T04:55:09.256Z,18.31
2023-10-04T04:55:54.521Z,18.31
2023-10-04T04:56:39.330Z,18.31
2023-10-04T04:57:24.632Z,18.31
2023-10-04T04:58:09.676Z,18.31
2023-10-04T04:58:54.303Z,18.31
2023-10-04T04:59:39.879Z,22.75
2023-10-04T05:00:26.127Z,20.24
2023-10-04T05:01:09.401Z,21.13
2023-10-04T05:01:54.700Z,20.16
2023-10-04T05:02:39.916Z,17.28
2023-10-04T05:03:24.281Z,16.32
2023-10-04T05:04:09.714Z,24.01
2023-10-04T05:04:54.930Z,24.01
2023-10-04T05:05:39.505Z,19.20
2023-10-04T05:06:24.750Z,17.28
2023-10-04T05:07:09.655Z,17.28
2023-10-04T05:07:54.567Z,19.20
2023-10-04T05:08:39.626Z,23.05
2023-10-04T05:09:25.169Z,24.97
2023-10-04T05:10:10.478Z,24.97
2023-10-04T05:10:55.722Z,24.97
2023-10-04T05:11:40.367Z,24.97
2023-10-04T05:12:25.720Z,24.97
2023-10-04T05:13:10.578Z,24.97
2023-10-04T05:13:55.690Z,24.97
2023-10-04T05:14:40.699Z,24.97
2023-10-04T05:15:26.815Z,24.97
2023-10-04T05:16:10.700Z,24.97
2023-10-04T05:16:55.966Z,24.97
2023-10-04T05:17:40.976Z,24.97
2023-10-04T05:18:25.822Z,24.97
2023-10-04T05:19:10.759Z,24.97
2023-10-04T05:19:56.086Z,24.97
2023-10-04T05:20:42.221Z,24.97
2023-10-04T05:21:26.080Z,24.97
2023-10-04T05:22:11.765Z,24.97
2023-10-04T05:22:58.053Z,24.97
2023-10-04T05:23:41.689Z,24.97
2023-10-04T05:24:26.856Z,24.97
2023-10-04T05:25:11.448Z,24.97
2023-10-04T05:25:56.679Z,24.97
2023-10-04T05:26:41.729Z,24.97
2023-10-04T05:27:26.723Z,24.97
2023-10-04T05:28:11.720Z,24.97
2023-10-04T05:28:56.876Z,24.97
2023-10-04T05:29:41.614Z,24.97
2023-10-04T05:30:27.859Z,24.97
2023-10-04T05:31:12.094Z,24.97
2023-10-04T05:31:57.130Z,24.97
2023-10-04T05:32:42.129Z,24.97
2023-10-04T05:33:27.239Z,24.97
2023-10-04T05:34:13.249Z,24.97
2023-10-04T05:34:57.024Z,24.97
2023-10-04T05:35:42.065Z,24.97
2023-10-04T05:36:27.332Z,24.97
2023-10-04T05:37:12.303Z,24.97
2023-10-04T05:37:57.304Z,24.97
2023-10-04T05:38:42.620Z,24.97
2023-10-04T05:39:27.578Z,24.97
2023-10-04T05:40:12.610Z,24.97
2023-10-04T05:40:57.875Z,24.97
2023-10-04T05:41:42.620Z,24.97
2023-10-04T05:42:28.248Z,24.97
2023-10-04T05:43:13.354Z,24.97
2023-10-04T05:43:58.533Z,24.97
2023-10-04T05:44:43.210Z,24.97
2023-10-04T05:45:27.942Z,24.97
2023-10-04T05:46:13.705Z,24.97
2023-10-04T05:46:58.020Z,24.97
2023-10-04T05:47:43.557Z,24.97
2023-10-04T05:48:28.661Z,24.97
2023-10-04T05:49:14.332Z,24.97
2023-10-04T05:49:58.554Z,24.97
2023-10-04T05:50:43.696Z,24.97
2023-10-04T05:51:28.686Z,24.97
2023-10-04T05:52:13.518Z,334.25
2023-10-04T05:52:58.611Z,334.25
2023-10-04T05:53:44.034Z,334.25
2023-10-04T05:54:30.807Z,334.25
2023-10-04T05:55:14.959Z,334.25
2023-10-04T05:55:58.948Z,334.25
2023-10-04T05:56:43.961Z,334.25
2023-10-04T05:57:29.013Z,334.25
2023-10-04T05:58:14.178Z,334.25
2023-10-04T05:58:58.607Z,334.25
2023-10-04T05:59:44.193Z,334.25
2023-10-04T06:00:29.183Z,334.25
2023-10-04T06:01:15.356Z,334.25
2023-10-04T06:01:59.041Z,334.25
2023-10-04T06:02:44.342Z,334.25
2023-10-04T06:03:31.496Z,334.25
2023-10-04T06:04:14.520Z,334.25
2023-10-04T06:04:59.263Z,334.25
2023-10-04T06:05:44.567Z,334.25
2023-10-04T06:06:29.848Z,334.25
2023-10-04T06:07:14.764Z,334.25
2023-10-04T06:07:59.605Z,334.25
2023-10-04T06:08:44.594Z,334.25
2023-10-04T06:09:30.055Z,334.25
2023-10-04T06:10:17.923Z,334.25
2023-10-04T06:10:59.770Z,334.25
2023-10-04T06:11:44.890Z,334.25
2023-10-04T06:12:30.315Z,334.25
2023-10-04T06:13:14.962Z,334.25
2023-10-04T06:13:59.956Z,334.25
2023-10-04T06:14:45.106Z,334.25
2023-10-04T06:15:30.815Z,334.25
2023-10-04T06:16:15.272Z,334.25
2023-10-04T06:17:00.285Z,334.25
2023-10-04T06:17:45.391Z,334.25
2023-10-04T06:18:30.621Z,334.25
2023-10-04T06:19:27.094Z,334.25
2023-10-04T06:20:00.622Z,334.25
2023-10-04T06:20:46.455Z,334.25
2023-10-04T06:21:31.357Z,334.25
2023-10-04T06:22:15.800Z,334.25
2023-10-04T06:23:00.321Z,334.25
2023-10-04T06:23:46.162Z,334.25
2023-10-04T06:24:30.814Z,334.25
2023-10-04T06:25:15.897Z,334.25
2023-10-04T06:26:01.105Z,334.25
2023-10-04T06:26:46.000Z,334.25
2023-10-04T06:27:31.066Z,334.25
2023-10-04T06:28:16.227Z,334.25
2023-10-04T06:29:01.549Z,334.25
2023-10-04T06:29:46.174Z,334.25
2023-10-04T06:30:31.277Z,334.25
2023-10-04T06:31:16.653Z,334.25
2023-10-04T06:32:01.444Z,334.25
2023-10-04T06:32:46.173Z,334.25
2023-10-04T06:33:31.434Z,334.25
2023-10-04T06:34:16.366Z,334.25
2023-10-04T06:35:01.520Z,334.25
2023-10-04T06:35:46.580Z,334.25
2023-10-04T06:36:31.625Z,334.25
2023-10-04T06:37:16.596Z,334.25
2023-10-04T06:38:01.728Z,334.25
2023-10-04T06:38:46.617Z,334.25
2023-10-04T06:39:32.182Z,334.25
2023-10-04T06:40:16.639Z,334.25
2023-10-04T06:41:02.156Z,334.25
2023-10-04T06:41:46.835Z,334.25
2023-10-04T06:42:31.697Z,334.25
2023-10-04T06:43:16.949Z,334.25
2023-10-04T06:44:02.129Z,334.25
2023-10-04T06:44:47.248Z,334.25
2023-10-04T06:45:32.414Z,334.25
2023-10-04T06:46:17.085Z,334.25
2023-10-04T06:47:02.330Z,334.25
2023-10-04T06:47:47.390Z,334.25
2023-10-04T06:48:32.556Z,334.25
2023-10-04T06:49:17.429Z,334.25
2023-10-04T06:50:02.342Z,334.25
2023-10-04T06:50:47.786Z,334.25
2023-10-04T06:51:32.716Z,334.25
2023-10-04T06:52:17.831Z,334.25
2023-10-04T06:53:02.991Z,334.25
2023-10-04T06:53:47.630Z,334.25
2023-10-04T06:54:32.876Z,334.25
2023-10-04T06:55:18.401Z,334.25
2023-10-04T06:56:03.002Z,334.25
2023-10-04T06:56:47.865Z,334.25
2023-10-04T06:57:32.937Z,334.25
2023-10-04T06:58:17.967Z,334.25
2023-10-04T06:59:03.732Z,334.25
2023-10-04T06:59:48.296Z,334.25
2023-10-04T07:00:32.990Z,334.25
2023-10-04T07:01:18.438Z,334.25
2023-10-04T07:02:03.543Z,334.25
2023-10-04T07:02:48.675Z,334.25
2023-10-04T07:03:33.475Z,334.25
2023-10-04T07:04:18.713Z,334.25
2023-10-04T07:05:03.481Z,334.25
2023-10-04T07:05:48.276Z,334.25
2023-10-04T07:06:33.535Z,334.25
2023-10-04T07:07:19.169Z,334.25
2023-10-04T07:08:03.539Z,334.25
2023-10-04T07:08:48.675Z,334.25
2023-10-04T07:09:33.753Z,334.25
2023-10-04T07:10:19.013Z,334.25
2023-10-04T07:11:05.053Z,334.25
2023-10-04T07:11:48.814Z,334.25
2023-10-04T07:12:37.393Z,334.25
2023-10-04T07:13:18.587Z,334.25
2023-10-04T07:14:03.824Z,334.25
2023-10-04T07:14:48.679Z,334.25
2023-10-04T07:15:34.340Z,334.25
2023-10-04T07:16:19.185Z,334.25
2023-10-04T07:17:04.177Z,334.25
2023-10-04T07:17:49.514Z,334.25
2023-10-04T07:18:34.562Z,334.25
2023-10-04T07:19:19.505Z,334.25
2023-10-04T07:20:04.408Z,334.25
2023-10-04T07:20:49.367Z,334.25
2023-10-04T07:21:34.273Z,334.25
2023-10-04T07:22:19.799Z,334.25
2023-10-04T07:23:04.420Z,334.25
2023-10-04T07:23:49.773Z,334.25
2023-10-04T07:24:34.669Z,334.25
2023-10-04T07:25:20.000Z,334.25
2023-10-04T07:26:05.198Z,334.25
2023-10-04T07:26:50.144Z,334.25
2023-10-04T07:27:34.904Z,334.25
2023-10-04T07:28:20.038Z,334.25
2023-10-04T07:29:05.210Z,334.25
2023-10-04T07:29:50.244Z,334.25
2023-10-04T07:30:35.303Z,334.25
2023-10-04T07:31:19.853Z,334.25
2023-10-04T07:32:05.484Z,334.25
2023-10-04T07:32:50.284Z,334.25
2023-10-04T07:33:35.251Z,334.25
2023-10-04T07:34:20.370Z,334.25
2023-10-04T07:35:05.354Z,334.25
2023-10-04T07:35:50.588Z,334.25
2023-10-04T07:36:36.237Z,334.25
2023-10-04T07:37:20.829Z,334.25
2023-10-04T07:38:05.665Z,334.25
2023-10-04T07:38:51.041Z,334.25
2023-10-04T07:39:35.947Z,334.25
2023-10-04T07:40:20.880Z,334.25
2023-10-04T07:41:05.891Z,334.25
2023-10-04T07:41:50.955Z,334.25
2023-10-04T07:42:36.357Z,334.25
2023-10-04T07:43:21.050Z,334.25
2023-10-04T07:44:06.441Z,334.25
2023-10-04T07:44:51.164Z,334.25
2023-10-04T07:45:36.294Z,334.25
2023-10-04T07:46:21.448Z,334.25
2023-10-04T07:47:07.294Z,334.25
2023-10-04T07:47:51.828Z,334.25
2023-10-04T07:48:36.684Z,334.25
2023-10-04T07:49:21.872Z,334.25
2023-10-04T07:50:06.671Z,334.25
2023-10-04T07:50:51.722Z,334.25
2023-10-04T07:51:36.949Z,334.25
2023-10-04T07:52:21.913Z,334.25
2023-10-04T07:53:07.105Z,334.25
2023-10-04T07:53:51.885Z,334.25
2023-10-04T07:54:37.494Z,334.25
2023-10-04T07:55:24.233Z,334.25
2023-10-04T07:56:07.116Z,334.25
2023-10-04T07:56:52.075Z,334.25
2023-10-04T07:57:37.559Z,334.25
2023-10-04T07:58:22.143Z,334.25
2023-10-04T07:59:07.440Z,334.25
2023-10-04T07:59:52.656Z,334.25
2023-10-04T08:00:38.401Z,334.25
2023-10-04T08:01:22.568Z,334.25
2023-10-04T08:02:08.618Z,334.25
2023-10-04T08:02:52.833Z,334.25
2023-10-04T08:03:37.659Z,334.25
2023-10-04T08:04:22.814Z,334.25
2023-10-04T08:05:07.856Z,334.25
2023-10-04T08:05:53.395Z,334.25
2023-10-04T08:06:37.735Z,334.25
2023-10-04T08:07:22.981Z,334.25
2023-10-04T08:08:11.444Z,334.25
2023-10-04T08:08:54.607Z,334.25
2023-10-04T08:09:38.371Z,334.25
2023-10-04T08:10:24.745Z,334.25
2023-10-04T08:11:08.515Z,13.39
2023-10-04T08:11:53.360Z,13.39
2023-10-04T08:12:37.769Z,273.38
2023-10-04T08:13:22.694Z,410.29
2023-10-04T08:14:09.700Z,410.29
2023-10-04T08:14:57.329Z,410.29
2023-10-04T08:15:40.446Z,410.29
2023-10-04T08:16:24.683Z,410.29
2023-10-04T08:17:10.332Z,410.29
2023-10-04T08:17:54.891Z,410.29
2023-10-04T08:18:41.828Z,410.29
2023-10-04T08:19:24.520Z,410.29
2023-10-04T08:20:09.960Z,410.29
2023-10-04T08:20:55.134Z,8.93
2023-10-04T08:21:39.838Z,8.93
2023-10-04T08:22:23.879Z,8.93
2023-10-04T08:23:08.873Z,8.93
2023-10-04T08:23:54.100Z,8.93
2023-10-04T08:24:38.963Z,8.93
2023-10-04T08:25:25.178Z,8.93
2023-10-04T08:26:09.016Z,8.93
2023-10-04T08:26:55.141Z,8.93
2023-10-04T08:27:39.553Z,8.93
2023-10-04T08:28:25.808Z,8.93
2023-10-04T08:29:09.306Z,8.93
2023-10-04T08:29:54.038Z,8.93
2023-10-04T08:30:39.159Z,8.93
2023-10-04T08:31:24.341Z,8.93
2023-10-04T08:32:09.653Z,8.93
2023-10-04T08:32:55.274Z,8.59
2023-10-04T08:33:39.709Z,79.17
2023-10-04T08:34:26.199Z,250.42
2023-10-04T08:35:12.999Z,250.42
2023-10-04T08:35:57.967Z,8.59
2023-10-04T08:36:39.913Z,8.59
2023-10-04T08:37:26.803Z,121.78
2023-10-04T08:38:09.688Z,62.34
2023-10-04T08:38:54.106Z,10.91
2023-10-04T08:39:39.922Z,234.94
2023-10-04T08:40:25.032Z,9.56
2023-10-04T08:41:09.371Z,9.56
2023-10-04T08:41:54.425Z,81.74
2023-10-04T08:42:39.737Z,39.11
2023-10-04T08:43:24.537Z,18.70
2023-10-04T08:44:09.598Z,51.68
2023-10-04T08:44:54.551Z,147.39
2023-10-04T08:45:39.865Z,180.43
2023-10-04T08:46:24.741Z,10.19
2023-10-04T08:47:09.770Z,78.72
2023-10-04T08:47:55.165Z,182.06
2023-10-04T08:48:40.187Z,347.61
2023-10-04T08:49:25.135Z,302.80
2023-10-04T08:50:10.292Z,316.70
2023-10-04T08:50:55.314Z,305.40
2023-10-04T08:51:40.838Z,329.19
2023-10-04T08:52:25.425Z,314.75
2023-10-04T08:53:10.291Z,325.62
2023-10-04T08:53:55.641Z,306.44
2023-10-04T08:54:40.706Z,162.49
2023-10-04T08:55:26.203Z,327.41
2023-10-04T08:56:12.401Z,327.41
2023-10-04T08:56:55.837Z,316.40
2023-10-04T08:57:40.721Z,235.13
2023-10-04T08:58:25.789Z,51.95
2023-10-04T08:59:11.096Z,84.63
2023-10-04T08:59:56.096Z,240.22
2023-10-04T09:00:41.590Z,284.70
2023-10-04T09:01:29.161Z,284.70
2023-10-04T09:02:13.368Z,284.70
2023-10-04T09:02:56.246Z,321.46
2023-10-04T09:03:41.206Z,283.19
2023-10-04T09:04:26.355Z,335.98
2023-10-04T09:05:11.829Z,335.98
2023-10-04T09:05:56.853Z,335.98
2023-10-04T09:06:41.542Z,10.62
2023-10-04T09:07:26.496Z,8.85
2023-10-04T09:08:12.073Z,8.85
2023-10-04T09:08:56.716Z,8.85
2023-10-04T09:09:44.122Z,8.85
2023-10-04T09:10:27.585Z,8.85
2023-10-04T09:11:12.367Z,8.85
2023-10-04T09:11:57.971Z,8.85
2023-10-04T09:12:57.686Z,8.85
2023-10-04T09:13:27.420Z,8.85
2023-10-04T09:14:12.583Z,8.85
2023-10-04T09:14:57.665Z,8.85
2023-10-04T09:15:42.718Z,8.85
2023-10-04T09:16:27.906Z,8.85
2023-10-04T09:17:13.974Z,6.35
2023-10-04T09:17:57.859Z,6.35
2023-10-04T09:18:42.340Z,6.35
2023-10-04T09:19:27.665Z,6.35
2023-10-04T09:20:13.179Z,6.35
2023-10-04T09:20:57.895Z,6.35
2023-10-04T09:21:43.055Z,6.35
2023-10-04T09:22:27.796Z,6.35
2023-10-04T09:23:12.970Z,6.35
2023-10-04T09:23:58.033Z,6.35
2023-10-04T09:24:42.850Z,7.26
2023-10-04T09:25:28.239Z,6.35
2023-10-04T09:26:12.655Z,9.98
2023-10-04T09:26:58.260Z,9.98
2023-10-04T09:27:43.320Z,9.98
2023-10-04T09:28:27.746Z,4.54
2023-10-04T09:29:13.220Z,5.45
2023-10-04T09:29:58.161Z,7.26
2023-10-04T09:30:42.997Z,4.54
2023-10-04T09:31:28.092Z,6.35
2023-10-04T09:32:13.217Z,6.35
2023-10-04T09:32:58.815Z,6.35
2023-10-04T09:33:44.014Z,481.60
2023-10-04T09:34:28.491Z,7.26
2023-10-04T09:35:13.615Z,6.40
2023-10-04T09:35:59.443Z,6.40